sensor_id;sensor_type;location;lat;lon;timestamp;temperature;humidity
32865;DHT22;19219;44.500;11.188;2023-05-07T00:02:04;15.80;99.90
32865;DHT22;19219;44.500;11.188;2023-05-07T00:04:30;15.60;99.90
32865;DHT22;19219;44.500;11.188;2023-05-07T00:07:02;15.40;99.90
32865;DHT22;19219;44.500;11.188;2023-05-07T00:09:28;15.30;99.90
32865;DHT22;19219;44.500;11.188;2023-05-07T00:11:53;15.40;99.90
32865;DHT22;19219;44.500;11.188;2023-05-07T00:14:19;15.40;99.90
32865;DHT22;19219;44.500;11.188;2023-05-07T00:16:44;15.40;99.90
32865;DHT22;19219;44.500;11.188;2023-05-07T00:19:10;15.50;99.90
32865;DHT22;19219;44.500;11.188;2023-05-07T00:21:36;15.50;99.90
32865;DHT22;19219;44.500;11.188;2023-05-07T00:24:01;15.60;99.90
32865;DHT22;19219;44.500;11.188;2023-05-07T00:26:27;15.60;99.90
32865;DHT22;19219;44.500;11.188;2023-05-07T00:28:53;15.60;99.90
32865;DHT22;19219;44.500;11.188;2023-05-07T00:31:18;15.70;99.90
32865;DHT22;19219;44.500;11.188;2023-05-07T00:33:44;15.70;99.90
32865;DHT22;19219;44.500;11.188;2023-05-07T00:36:10;15.80;99.90
32865;DHT22;19219;44.500;11.188;2023-05-07T00:38:35;15.90;99.90
32865;DHT22;19219;44.500;11.188;2023-05-07T00:41:01;15.80;99.90
32865;DHT22;19219;44.500;11.188;2023-05-07T00:43:27;15.80;99.90
32865;DHT22;19219;44.500;11.188;2023-05-07T00:45:54;15.90;99.90
32865;DHT22;19219;44.500;11.188;2023-05-07T00:48:20;15.90;99.90
32865;DHT22;19219;44.500;11.188;2023-05-07T00:50:45;15.80;99.90
32865;DHT22;19219;44.500;11.188;2023-05-07T00:53:12;15.90;99.90
32865;DHT22;19219;44.500;11.188;2023-05-07T00:55:38;15.80;99.90
32865;DHT22;19219;44.500;11.188;2023-05-07T00:58:04;15.70;99.90
32865;DHT22;19219;44.500;11.188;2023-05-07T01:00:31;15.60;99.90
32865;DHT22;19219;44.500;11.188;2023-05-07T01:02:57;15.50;99.90
32865;DHT22;19219;44.500;11.188;2023-05-07T01:05:23;15.30;99.90
32865;DHT22;19219;44.500;11.188;2023-05-07T01:07:51;15.30;99.90
32865;DHT22;19219;44.500;11.188;2023-05-07T01:10:18;15.10;99.90
32865;DHT22;19219;44.500;11.188;2023-05-07T01:12:44;15.10;99.90
32865;DHT22;19219;44.500;11.188;2023-05-07T01:15:11;15.10;99.90
32865;DHT22;19219;44.500;11.188;2023-05-07T01:17:39;15.10;99.90
32865;DHT22;19219;44.500;11.188;2023-05-07T01:20:06;15.10;99.90
32865;DHT22;19219;44.500;11.188;2023-05-07T01:22:33;15.00;99.90
32865;DHT22;19219;44.500;11.188;2023-05-07T01:25:00;15.00;99.90
32865;DHT22;19219;44.500;11.188;2023-05-07T01:27:27;14.90;99.90
32865;DHT22;19219;44.500;11.188;2023-05-07T01:29:53;14.90;99.90
32865;DHT22;19219;44.500;11.188;2023-05-07T01:32:35;15.00;99.90
32865;DHT22;19219;44.500;11.188;2023-05-07T01:35:02;15.00;99.90
32865;DHT22;19219;44.500;11.188;2023-05-07T01:37:29;15.00;99.90
32865;DHT22;19219;44.500;11.188;2023-05-07T01:39:55;15.10;99.90
32865;DHT22;19219;44.500;11.188;2023-05-07T01:42:21;15.00;99.90
32865;DHT22;19219;44.500;11.188;2023-05-07T01:44:47;15.00;99.90
32865;DHT22;19219;44.500;11.188;2023-05-07T01:47:14;15.10;99.90
32865;DHT22;19219;44.500;11.188;2023-05-07T01:49:40;15.00;99.90
32865;DHT22;19219;44.500;11.188;2023-05-07T01:52:06;15.00;99.90
32865;DHT22;19219;44.500;11.188;2023-05-07T01:54:32;15.00;99.90
32865;DHT22;19219;44.500;11.188;2023-05-07T01:56:57;15.00;99.90
32865;DHT22;19219;44.500;11.188;2023-05-07T01:59:23;15.10;99.90
32865;DHT22;19219;44.500;11.188;2023-05-07T02:01:49;15.20;99.90
32865;DHT22;19219;44.500;11.188;2023-05-07T02:04:15;15.20;99.90
32865;DHT22;19219;44.500;11.188;2023-05-07T02:06:40;15.10;99.90
32865;DHT22;19219;44.500;11.188;2023-05-07T02:09:06;15.00;99.90
32865;DHT22;19219;44.500;11.188;2023-05-07T02:11:32;15.00;99.90
32865;DHT22;19219;44.500;11.188;2023-05-07T02:13:57;14.90;99.90
32865;DHT22;19219;44.500;11.188;2023-05-07T02:16:23;14.80;99.90
32865;DHT22;19219;44.500;11.188;2023-05-07T02:18:49;14.70;99.90
32865;DHT22;19219;44.500;11.188;2023-05-07T02:21:15;14.70;99.90
32865;DHT22;19219;44.500;11.188;2023-05-07T02:23:40;14.70;99.90
32865;DHT22;19219;44.500;11.188;2023-05-07T02:26:06;14.80;99.90
32865;DHT22;19219;44.500;11.188;2023-05-07T02:28:32;14.90;99.90
32865;DHT22;19219;44.500;11.188;2023-05-07T02:30:57;14.90;99.90
32865;DHT22;19219;44.500;11.188;2023-05-07T02:33:26;14.90;99.90
32865;DHT22;19219;44.500;11.188;2023-05-07T02:35:52;14.90;99.90
32865;DHT22;19219;44.500;11.188;2023-05-07T02:38:17;14.80;99.90
32865;DHT22;19219;44.500;11.188;2023-05-07T02:40:43;14.70;99.90
32865;DHT22;19219;44.500;11.188;2023-05-07T02:43:09;14.60;99.90
32865;DHT22;19219;44.500;11.188;2023-05-07T02:45:35;14.60;99.90
32865;DHT22;19219;44.500;11.188;2023-05-07T02:48:03;14.50;99.90
32865;DHT22;19219;44.500;11.188;2023-05-07T02:50:29;14.50;99.90
32865;DHT22;19219;44.500;11.188;2023-05-07T02:52:55;14.40;99.90
32865;DHT22;19219;44.500;11.188;2023-05-07T02:55:20;14.50;99.90
32865;DHT22;19219;44.500;11.188;2023-05-07T02:57:46;14.50;99.90
32865;DHT22;19219;44.500;11.188;2023-05-07T03:00:18;14.50;99.90
32865;DHT22;19219;44.500;11.188;2023-05-07T03:02:45;14.70;99.90
32865;DHT22;19219;44.500;11.188;2023-05-07T03:05:11;14.70;99.90
32865;DHT22;19219;44.500;11.188;2023-05-07T03:07:37;14.60;99.90
32865;DHT22;19219;44.500;11.188;2023-05-07T03:10:04;14.60;99.90
32865;DHT22;19219;44.500;11.188;2023-05-07T03:12:30;14.50;99.90
32865;DHT22;19219;44.500;11.188;2023-05-07T03:14:56;14.50;99.90
32865;DHT22;19219;44.500;11.188;2023-05-07T03:17:22;14.50;99.90
32865;DHT22;19219;44.500;11.188;2023-05-07T03:19:48;14.50;99.90
32865;DHT22;19219;44.500;11.188;2023-05-07T03:22:14;14.60;99.90
32865;DHT22;19219;44.500;11.188;2023-05-07T03:24:40;14.50;99.90
32865;DHT22;19219;44.500;11.188;2023-05-07T03:27:05;14.50;99.90
32865;DHT22;19219;44.500;11.188;2023-05-07T03:29:31;14.50;99.90
32865;DHT22;19219;44.500;11.188;2023-05-07T03:31:56;14.40;99.90
32865;DHT22;19219;44.500;11.188;2023-05-07T03:34:22;14.40;99.90
32865;DHT22;19219;44.500;11.188;2023-05-07T03:36:48;14.40;99.90
32865;DHT22;19219;44.500;11.188;2023-05-07T03:39:14;14.30;99.90
32865;DHT22;19219;44.500;11.188;2023-05-07T03:41:40;14.30;99.90
32865;DHT22;19219;44.500;11.188;2023-05-07T03:44:06;14.30;99.90
32865;DHT22;19219;44.500;11.188;2023-05-07T03:46:31;14.30;99.90
32865;DHT22;19219;44.500;11.188;2023-05-07T03:48:58;14.40;99.90
32865;DHT22;19219;44.500;11.188;2023-05-07T03:51:24;14.30;99.90
32865;DHT22;19219;44.500;11.188;2023-05-07T03:53:49;14.40;99.90
32865;DHT22;19219;44.500;11.188;2023-05-07T03:56:18;14.40;99.90
32865;DHT22;19219;44.500;11.188;2023-05-07T03:58:44;14.50;99.90
32865;DHT22;19219;44.500;11.188;2023-05-07T04:01:09;14.40;99.90
32865;DHT22;19219;44.500;11.188;2023-05-07T04:03:35;14.40;99.90
32865;DHT22;19219;44.500;11.188;2023-05-07T04:06:01;14.40;99.90
32865;DHT22;19219;44.500;11.188;2023-05-07T04:08:26;14.30;99.90
32865;DHT22;19219;44.500;11.188;2023-05-07T04:10:56;14.20;99.90
32865;DHT22;19219;44.500;11.188;2023-05-07T04:13:22;14.10;99.90
32865;DHT22;19219;44.500;11.188;2023-05-07T04:15:48;14.10;99.90
32865;DHT22;19219;44.500;11.188;2023-05-07T04:18:14;14.10;99.90
32865;DHT22;19219;44.500;11.188;2023-05-07T04:20:40;14.10;99.90
32865;DHT22;19219;44.500;11.188;2023-05-07T04:23:07;14.00;99.90
32865;DHT22;19219;44.500;11.188;2023-05-07T04:25:32;14.00;99.90
32865;DHT22;19219;44.500;11.188;2023-05-07T04:27:58;14.10;99.90
32865;DHT22;19219;44.500;11.188;2023-05-07T04:30:24;14.10;99.90
32865;DHT22;19219;44.500;11.188;2023-05-07T04:32:49;14.10;99.90
32865;DHT22;19219;44.500;11.188;2023-05-07T04:35:15;14.10;99.90
32865;DHT22;19219;44.500;11.188;2023-05-07T04:37:41;14.10;99.90
32865;DHT22;19219;44.500;11.188;2023-05-07T04:40:07;14.20;99.90
32865;DHT22;19219;44.500;11.188;2023-05-07T04:42:33;14.30;99.90
32865;DHT22;19219;44.500;11.188;2023-05-07T04:44:58;14.30;99.90
32865;DHT22;19219;44.500;11.188;2023-05-07T04:47:24;14.20;99.90
32865;DHT22;19219;44.500;11.188;2023-05-07T04:49:49;14.20;99.90
32865;DHT22;19219;44.500;11.188;2023-05-07T04:52:15;14.10;99.90
32865;DHT22;19219;44.500;11.188;2023-05-07T04:54:42;14.10;99.90
32865;DHT22;19219;44.500;11.188;2023-05-07T04:57:07;14.20;99.90
32865;DHT22;19219;44.500;11.188;2023-05-07T04:59:33;14.40;99.90
32865;DHT22;19219;44.500;11.188;2023-05-07T05:01:59;14.50;99.90
32865;DHT22;19219;44.500;11.188;2023-05-07T05:04:24;14.50;99.90
32865;DHT22;19219;44.500;11.188;2023-05-07T05:06:50;14.60;99.90
32865;DHT22;19219;44.500;11.188;2023-05-07T05:09:15;14.70;99.90
32865;DHT22;19219;44.500;11.188;2023-05-07T05:11:41;14.80;99.90
32865;DHT22;19219;44.500;11.188;2023-05-07T05:14:07;14.90;99.90
32865;DHT22;19219;44.500;11.188;2023-05-07T05:16:33;15.10;99.90
32865;DHT22;19219;44.500;11.188;2023-05-07T05:18:59;15.30;99.90
32865;DHT22;19219;44.500;11.188;2023-05-07T05:21:25;15.60;99.90
32865;DHT22;19219;44.500;11.188;2023-05-07T05:23:50;15.90;99.90
32865;DHT22;19219;44.500;11.188;2023-05-07T05:26:17;16.20;99.90
32865;DHT22;19219;44.500;11.188;2023-05-07T05:28:43;16.60;99.90
32865;DHT22;19219;44.500;11.188;2023-05-07T05:31:08;16.90;99.90
32865;DHT22;19219;44.500;11.188;2023-05-07T05:33:34;17.20;99.90
32865;DHT22;19219;44.500;11.188;2023-05-07T05:36:00;17.60;99.90
32865;DHT22;19219;44.500;11.188;2023-05-07T05:38:26;17.90;99.90
32865;DHT22;19219;44.500;11.188;2023-05-07T05:40:52;18.40;99.90
32865;DHT22;19219;44.500;11.188;2023-05-07T05:43:17;18.70;99.90
32865;DHT22;19219;44.500;11.188;2023-05-07T05:45:43;19.10;99.90
32865;DHT22;19219;44.500;11.188;2023-05-07T05:48:09;19.10;99.90
32865;DHT22;19219;44.500;11.188;2023-05-07T05:50:34;19.20;99.90
32865;DHT22;19219;44.500;11.188;2023-05-07T05:53:03;19.20;99.90
32865;DHT22;19219;44.500;11.188;2023-05-07T05:55:28;19.20;99.90
32865;DHT22;19219;44.500;11.188;2023-05-07T05:57:54;19.20;99.90
32865;DHT22;19219;44.500;11.188;2023-05-07T06:00:20;19.40;99.90
32865;DHT22;19219;44.500;11.188;2023-05-07T06:02:48;19.40;99.90
32865;DHT22;19219;44.500;11.188;2023-05-07T06:05:13;19.40;99.90
32865;DHT22;19219;44.500;11.188;2023-05-07T06:07:39;19.50;99.90
32865;DHT22;19219;44.500;11.188;2023-05-07T06:10:05;19.50;99.90
32865;DHT22;19219;44.500;11.188;2023-05-07T06:12:31;19.60;99.90
32865;DHT22;19219;44.500;11.188;2023-05-07T06:14:57;19.90;99.90
32865;DHT22;19219;44.500;11.188;2023-05-07T06:17:23;20.00;99.90
32865;DHT22;19219;44.500;11.188;2023-05-07T06:19:48;20.20;99.90
32865;DHT22;19219;44.500;11.188;2023-05-07T06:22:14;20.20;99.90
32865;DHT22;19219;44.500;11.188;2023-05-07T06:24:39;20.40;99.90
32865;DHT22;19219;44.500;11.188;2023-05-07T06:27:05;20.90;99.90
32865;DHT22;19219;44.500;11.188;2023-05-07T06:29:31;21.30;99.90
32865;DHT22;19219;44.500;11.188;2023-05-07T06:32:09;21.30;99.90
32865;DHT22;19219;44.500;11.188;2023-05-07T06:34:35;21.60;99.90
32865;DHT22;19219;44.500;11.188;2023-05-07T06:37:01;21.70;99.90
32865;DHT22;19219;44.500;11.188;2023-05-07T06:39:27;21.70;99.90
32865;DHT22;19219;44.500;11.188;2023-05-07T06:41:53;21.80;99.90
32865;DHT22;19219;44.500;11.188;2023-05-07T06:44:19;22.20;99.90
32865;DHT22;19219;44.500;11.188;2023-05-07T06:46:44;22.40;99.90
32865;DHT22;19219;44.500;11.188;2023-05-07T06:49:11;22.50;99.90
32865;DHT22;19219;44.500;11.188;2023-05-07T06:51:37;22.50;99.90
32865;DHT22;19219;44.500;11.188;2023-05-07T06:54:03;22.70;99.90
32865;DHT22;19219;44.500;11.188;2023-05-07T06:56:30;22.90;99.90
32865;DHT22;19219;44.500;11.188;2023-05-07T06:58:56;23.00;99.90
32865;DHT22;19219;44.500;11.188;2023-05-07T07:01:21;22.60;99.90
32865;DHT22;19219;44.500;11.188;2023-05-07T07:03:47;22.80;99.90
32865;DHT22;19219;44.500;11.188;2023-05-07T07:06:13;22.70;99.90
32865;DHT22;19219;44.500;11.188;2023-05-07T07:08:38;23.00;99.90
32865;DHT22;19219;44.500;11.188;2023-05-07T07:11:06;23.10;99.90
32865;DHT22;19219;44.500;11.188;2023-05-07T07:13:31;23.20;99.90
32865;DHT22;19219;44.500;11.188;2023-05-07T07:15:57;22.80;99.90
32865;DHT22;19219;44.500;11.188;2023-05-07T07:18:23;22.80;99.90
32865;DHT22;19219;44.500;11.188;2023-05-07T07:20:49;23.00;99.90
32865;DHT22;19219;44.500;11.188;2023-05-07T07:23:15;23.20;99.90
32865;DHT22;19219;44.500;11.188;2023-05-07T07:25:41;23.10;99.90
32865;DHT22;19219;44.500;11.188;2023-05-07T07:28:06;23.60;99.90
32865;DHT22;19219;44.500;11.188;2023-05-07T07:30:32;23.90;99.90
32865;DHT22;19219;44.500;11.188;2023-05-07T07:32:58;24.10;99.90
32865;DHT22;19219;44.500;11.188;2023-05-07T07:35:28;24.40;99.90
32865;DHT22;19219;44.500;11.188;2023-05-07T07:37:54;24.60;99.90
32865;DHT22;19219;44.500;11.188;2023-05-07T07:40:19;24.90;99.90
32865;DHT22;19219;44.500;11.188;2023-05-07T07:42:45;25.10;99.90
32865;DHT22;19219;44.500;11.188;2023-05-07T07:45:11;25.40;99.90
32865;DHT22;19219;44.500;11.188;2023-05-07T07:47:39;25.30;99.90
32865;DHT22;19219;44.500;11.188;2023-05-07T07:50:06;25.00;99.90
32865;DHT22;19219;44.500;11.188;2023-05-07T07:52:32;24.80;99.90
32865;DHT22;19219;44.500;11.188;2023-05-07T07:54:58;24.50;99.90
32865;DHT22;19219;44.500;11.188;2023-05-07T07:57:24;24.40;99.90
32865;DHT22;19219;44.500;11.188;2023-05-07T07:59:49;24.30;99.90
32865;DHT22;19219;44.500;11.188;2023-05-07T08:02:16;24.50;99.90
32865;DHT22;19219;44.500;11.188;2023-05-07T08:04:42;24.80;99.90
32865;DHT22;19219;44.500;11.188;2023-05-07T08:07:09;24.80;99.90
32865;DHT22;19219;44.500;11.188;2023-05-07T08:09:36;25.40;99.90
32865;DHT22;19219;44.500;11.188;2023-05-07T08:12:02;25.80;99.90
32865;DHT22;19219;44.500;11.188;2023-05-07T08:14:28;26.00;99.90
32865;DHT22;19219;44.500;11.188;2023-05-07T08:16:54;26.20;99.90
32865;DHT22;19219;44.500;11.188;2023-05-07T08:19:20;26.10;99.90
32865;DHT22;19219;44.500;11.188;2023-05-07T08:21:47;26.10;99.90
32865;DHT22;19219;44.500;11.188;2023-05-07T08:24:14;26.40;99.90
32865;DHT22;19219;44.500;11.188;2023-05-07T08:26:40;26.80;99.90
32865;DHT22;19219;44.500;11.188;2023-05-07T08:29:06;27.00;99.90
32865;DHT22;19219;44.500;11.188;2023-05-07T08:31:31;27.20;99.90
32865;DHT22;19219;44.500;11.188;2023-05-07T08:33:58;27.10;99.90
32865;DHT22;19219;44.500;11.188;2023-05-07T08:36:24;26.80;99.90
32865;DHT22;19219;44.500;11.188;2023-05-07T08:38:51;27.00;99.90
32865;DHT22;19219;44.500;11.188;2023-05-07T08:41:17;27.10;99.90
32865;DHT22;19219;44.500;11.188;2023-05-07T08:43:47;27.00;99.90
32865;DHT22;19219;44.500;11.188;2023-05-07T08:46:19;27.00;99.90
32865;DHT22;19219;44.500;11.188;2023-05-07T08:48:48;26.90;99.90
32865;DHT22;19219;44.500;11.188;2023-05-07T08:51:17;27.30;99.90
32865;DHT22;19219;44.500;11.188;2023-05-07T08:53:44;27.20;99.90
32865;DHT22;19219;44.500;11.188;2023-05-07T08:56:10;27.30;99.90
32865;DHT22;19219;44.500;11.188;2023-05-07T08:58:36;27.20;99.90
32865;DHT22;19219;44.500;11.188;2023-05-07T09:01:06;27.30;99.90
32865;DHT22;19219;44.500;11.188;2023-05-07T09:03:32;27.30;99.90
32865;DHT22;19219;44.500;11.188;2023-05-07T09:05:58;27.50;99.90
32865;DHT22;19219;44.500;11.188;2023-05-07T09:08:25;27.50;99.90
32865;DHT22;19219;44.500;11.188;2023-05-07T09:10:52;27.70;99.90
32865;DHT22;19219;44.500;11.188;2023-05-07T09:13:17;27.70;99.90
32865;DHT22;19219;44.500;11.188;2023-05-07T09:15:43;27.90;97.90
32865;DHT22;19219;44.500;11.188;2023-05-07T09:18:09;27.70;99.80
32865;DHT22;19219;44.500;11.188;2023-05-07T09:20:36;27.50;98.90
32865;DHT22;19219;44.500;11.188;2023-05-07T09:23:02;27.80;99.10
32865;DHT22;19219;44.500;11.188;2023-05-07T09:25:32;28.10;97.70
32865;DHT22;19219;44.500;11.188;2023-05-07T09:27:58;27.90;98.40
32865;DHT22;19219;44.500;11.188;2023-05-07T09:30:28;27.70;98.50
32865;DHT22;19219;44.500;11.188;2023-05-07T09:32:54;27.80;97.30
32865;DHT22;19219;44.500;11.188;2023-05-07T09:35:20;27.90;97.40
32865;DHT22;19219;44.500;11.188;2023-05-07T09:37:59;27.90;97.90
32865;DHT22;19219;44.500;11.188;2023-05-07T09:40:27;27.70;97.80
32865;DHT22;19219;44.500;11.188;2023-05-07T09:42:53;28.00;98.20
32865;DHT22;19219;44.500;11.188;2023-05-07T09:47:49;28.00;97.60
32865;DHT22;19219;44.500;11.188;2023-05-07T09:50:18;28.10;97.50
32865;DHT22;19219;44.500;11.188;2023-05-07T09:52:45;28.20;97.20
32865;DHT22;19219;44.500;11.188;2023-05-07T09:55:11;28.50;97.10
32865;DHT22;19219;44.500;11.188;2023-05-07T09:57:38;28.40;96.80
32865;DHT22;19219;44.500;11.188;2023-05-07T10:00:07;28.50;97.10
32865;DHT22;19219;44.500;11.188;2023-05-07T10:02:35;28.40;98.90
32865;DHT22;19219;44.500;11.188;2023-05-07T10:05:02;28.10;97.30
32865;DHT22;19219;44.500;11.188;2023-05-07T10:07:29;27.90;97.50
32865;DHT22;19219;44.500;11.188;2023-05-07T10:09:55;27.90;99.00
32865;DHT22;19219;44.500;11.188;2023-05-07T10:12:21;27.80;98.70
32865;DHT22;19219;44.500;11.188;2023-05-07T10:14:47;27.60;98.40
32865;DHT22;19219;44.500;11.188;2023-05-07T10:17:16;27.40;98.50
32865;DHT22;19219;44.500;11.188;2023-05-07T10:19:44;27.30;98.80
32865;DHT22;19219;44.500;11.188;2023-05-07T10:22:10;27.30;98.70
32865;DHT22;19219;44.500;11.188;2023-05-07T10:24:36;27.50;98.40
32865;DHT22;19219;44.500;11.188;2023-05-07T10:27:07;27.30;98.00
32865;DHT22;19219;44.500;11.188;2023-05-07T10:29:44;27.20;98.00
32865;DHT22;19219;44.500;11.188;2023-05-07T10:32:39;27.30;99.00
32865;DHT22;19219;44.500;11.188;2023-05-07T10:35:10;27.50;99.60
32865;DHT22;19219;44.500;11.188;2023-05-07T10:37:37;27.40;99.20
32865;DHT22;19219;44.500;11.188;2023-05-07T10:40:03;27.50;99.20
32865;DHT22;19219;44.500;11.188;2023-05-07T10:42:29;27.40;98.30
32865;DHT22;19219;44.500;11.188;2023-05-07T10:44:55;27.20;97.20
32865;DHT22;19219;44.500;11.188;2023-05-07T10:47:21;27.20;98.20
32865;DHT22;19219;44.500;11.188;2023-05-07T10:52:15;27.20;99.30
32865;DHT22;19219;44.500;11.188;2023-05-07T10:54:42;27.50;99.90
32865;DHT22;19219;44.500;11.188;2023-05-07T10:59:56;27.30;98.60
32865;DHT22;19219;44.500;11.188;2023-05-07T11:02:21;27.50;99.90
32865;DHT22;19219;44.500;11.188;2023-05-07T11:05:22;27.60;99.70
32865;DHT22;19219;44.500;11.188;2023-05-07T11:07:59;27.50;99.60
32865;DHT22;19219;44.500;11.188;2023-05-07T11:13:16;27.20;98.70
32865;DHT22;19219;44.500;11.188;2023-05-07T11:15:45;27.10;98.40
32865;DHT22;19219;44.500;11.188;2023-05-07T11:18:12;27.00;98.60
32865;DHT22;19219;44.500;11.188;2023-05-07T11:20:50;27.10;99.10
32865;DHT22;19219;44.500;11.188;2023-05-07T11:26:02;27.30;99.20
32865;DHT22;19219;44.500;11.188;2023-05-07T11:28:29;27.40;99.40
32865;DHT22;19219;44.500;11.188;2023-05-07T11:30:56;27.40;97.80
32865;DHT22;19219;44.500;11.188;2023-05-07T11:33:22;27.40;97.80
32865;DHT22;19219;44.500;11.188;2023-05-07T11:35:48;27.30;97.70
32865;DHT22;19219;44.500;11.188;2023-05-07T11:38:17;27.20;97.60
32865;DHT22;19219;44.500;11.188;2023-05-07T11:40:55;27.20;97.90
32865;DHT22;19219;44.500;11.188;2023-05-07T11:43:21;27.10;98.90
32865;DHT22;19219;44.500;11.188;2023-05-07T11:45:47;27.10;96.30
32865;DHT22;19219;44.500;11.188;2023-05-07T11:48:14;27.10;97.00
32865;DHT22;19219;44.500;11.188;2023-05-07T11:51:02;27.10;96.30
32865;DHT22;19219;44.500;11.188;2023-05-07T11:53:37;27.00;95.50
32865;DHT22;19219;44.500;11.188;2023-05-07T11:56:10;26.80;96.20
32865;DHT22;19219;44.500;11.188;2023-05-07T11:58:36;26.80;95.40
32865;DHT22;19219;44.500;11.188;2023-05-07T12:01:02;26.70;96.50
32865;DHT22;19219;44.500;11.188;2023-05-07T12:03:28;26.70;96.10
32865;DHT22;19219;44.500;11.188;2023-05-07T12:05:54;26.80;95.60
32865;DHT22;19219;44.500;11.188;2023-05-07T12:08:21;26.60;95.20
32865;DHT22;19219;44.500;11.188;2023-05-07T12:10:49;26.60;95.20
32865;DHT22;19219;44.500;11.188;2023-05-07T12:13:18;26.70;96.20
32865;DHT22;19219;44.500;11.188;2023-05-07T12:15:45;26.80;96.80
32865;DHT22;19219;44.500;11.188;2023-05-07T12:18:14;26.80;98.00
32865;DHT22;19219;44.500;11.188;2023-05-07T12:20:40;27.00;98.90
32865;DHT22;19219;44.500;11.188;2023-05-07T12:23:06;27.00;97.70
32865;DHT22;19219;44.500;11.188;2023-05-07T12:25:34;27.00;98.40
32865;DHT22;19219;44.500;11.188;2023-05-07T12:28:01;26.90;98.00
32865;DHT22;19219;44.500;11.188;2023-05-07T12:30:27;26.90;98.00
32865;DHT22;19219;44.500;11.188;2023-05-07T12:32:53;27.00;97.70
32865;DHT22;19219;44.500;11.188;2023-05-07T12:35:36;26.90;97.00
32865;DHT22;19219;44.500;11.188;2023-05-07T12:38:02;26.90;97.70
32865;DHT22;19219;44.500;11.188;2023-05-07T12:40:41;26.80;97.20
32865;DHT22;19219;44.500;11.188;2023-05-07T12:43:07;27.00;97.30
32865;DHT22;19219;44.500;11.188;2023-05-07T12:45:37;27.10;96.90
32865;DHT22;19219;44.500;11.188;2023-05-07T12:48:04;27.10;97.20
32865;DHT22;19219;44.500;11.188;2023-05-07T12:50:33;26.80;96.00
32865;DHT22;19219;44.500;11.188;2023-05-07T12:52:59;26.90;98.20
32865;DHT22;19219;44.500;11.188;2023-05-07T12:55:25;27.00;98.20
32865;DHT22;19219;44.500;11.188;2023-05-07T12:57:51;27.10;98.20
32865;DHT22;19219;44.500;11.188;2023-05-07T13:00:34;27.10;99.30
32865;DHT22;19219;44.500;11.188;2023-05-07T13:03:00;27.10;99.70
32865;DHT22;19219;44.500;11.188;2023-05-07T13:05:25;27.20;99.90
32865;DHT22;19219;44.500;11.188;2023-05-07T13:07:55;27.20;99.90
32865;DHT22;19219;44.500;11.188;2023-05-07T13:10:22;27.20;99.90
32865;DHT22;19219;44.500;11.188;2023-05-07T13:12:48;27.10;99.90
32865;DHT22;19219;44.500;11.188;2023-05-07T13:15:14;27.10;99.90
32865;DHT22;19219;44.500;11.188;2023-05-07T13:17:40;27.30;99.90
32865;DHT22;19219;44.500;11.188;2023-05-07T13:20:06;27.30;99.90
32865;DHT22;19219;44.500;11.188;2023-05-07T13:22:33;27.30;99.90
32865;DHT22;19219;44.500;11.188;2023-05-07T13:24:59;27.30;99.90
32865;DHT22;19219;44.500;11.188;2023-05-07T13:27:24;27.30;99.90
32865;DHT22;19219;44.500;11.188;2023-05-07T13:29:50;27.30;99.90
32865;DHT22;19219;44.500;11.188;2023-05-07T13:32:16;27.30;99.90
32865;DHT22;19219;44.500;11.188;2023-05-07T13:34:42;27.20;99.90
32865;DHT22;19219;44.500;11.188;2023-05-07T13:37:07;27.30;99.90
32865;DHT22;19219;44.500;11.188;2023-05-07T13:39:33;27.30;99.90
32865;DHT22;19219;44.500;11.188;2023-05-07T13:41:59;27.30;99.90
32865;DHT22;19219;44.500;11.188;2023-05-07T13:44:24;27.30;99.80
32865;DHT22;19219;44.500;11.188;2023-05-07T13:46:50;27.40;99.90
32865;DHT22;19219;44.500;11.188;2023-05-07T13:49:16;27.30;99.90
32865;DHT22;19219;44.500;11.188;2023-05-07T13:51:42;27.20;99.90
32865;DHT22;19219;44.500;11.188;2023-05-07T13:54:07;27.30;99.90
32865;DHT22;19219;44.500;11.188;2023-05-07T13:56:33;27.30;99.90
32865;DHT22;19219;44.500;11.188;2023-05-07T13:58:59;27.40;99.90
32865;DHT22;19219;44.500;11.188;2023-05-07T14:01:25;27.50;99.90
32865;DHT22;19219;44.500;11.188;2023-05-07T14:03:50;27.60;99.90
32865;DHT22;19219;44.500;11.188;2023-05-07T14:06:16;27.70;99.90
32865;DHT22;19219;44.500;11.188;2023-05-07T14:08:42;27.60;99.90
32865;DHT22;19219;44.500;11.188;2023-05-07T14:11:07;27.70;99.90
32865;DHT22;19219;44.500;11.188;2023-05-07T14:13:33;27.70;99.90
32865;DHT22;19219;44.500;11.188;2023-05-07T14:15:59;27.70;99.80
32865;DHT22;19219;44.500;11.188;2023-05-07T14:18:26;27.50;99.40
32865;DHT22;19219;44.500;11.188;2023-05-07T14:20:52;27.50;99.70
32865;DHT22;19219;44.500;11.188;2023-05-07T14:23:17;27.70;99.80
32865;DHT22;19219;44.500;11.188;2023-05-07T14:25:45;27.60;99.90
32865;DHT22;19219;44.500;11.188;2023-05-07T14:28:13;27.60;99.90
32865;DHT22;19219;44.500;11.188;2023-05-07T14:30:38;27.60;99.90
32865;DHT22;19219;44.500;11.188;2023-05-07T14:33:04;27.50;99.90
32865;DHT22;19219;44.500;11.188;2023-05-07T14:35:30;27.60;99.90
32865;DHT22;19219;44.500;11.188;2023-05-07T14:37:55;27.80;99.90
32865;DHT22;19219;44.500;11.188;2023-05-07T14:40:21;27.90;99.90
32865;DHT22;19219;44.500;11.188;2023-05-07T14:42:47;27.90;99.90
32865;DHT22;19219;44.500;11.188;2023-05-07T14:45:12;27.90;99.90
32865;DHT22;19219;44.500;11.188;2023-05-07T14:47:38;27.70;99.90
32865;DHT22;19219;44.500;11.188;2023-05-07T14:50:04;27.70;99.90
32865;DHT22;19219;44.500;11.188;2023-05-07T14:52:30;27.50;99.90
32865;DHT22;19219;44.500;11.188;2023-05-07T14:54:55;27.50;99.90
32865;DHT22;19219;44.500;11.188;2023-05-07T14:57:21;27.30;99.90
32865;DHT22;19219;44.500;11.188;2023-05-07T14:59:47;27.40;99.90
32865;DHT22;19219;44.500;11.188;2023-05-07T15:02:14;27.20;99.90
32865;DHT22;19219;44.500;11.188;2023-05-07T15:04:40;27.30;99.90
32865;DHT22;19219;44.500;11.188;2023-05-07T15:07:14;27.50;99.90
32865;DHT22;19219;44.500;11.188;2023-05-07T15:09:45;27.60;99.90
32865;DHT22;19219;44.500;11.188;2023-05-07T15:12:11;27.50;99.90
32865;DHT22;19219;44.500;11.188;2023-05-07T15:14:37;27.50;99.90
32865;DHT22;19219;44.500;11.188;2023-05-07T15:17:03;27.30;99.90
32865;DHT22;19219;44.500;11.188;2023-05-07T15:19:29;27.20;99.90
32865;DHT22;19219;44.500;11.188;2023-05-07T15:21:59;26.90;99.90
32865;DHT22;19219;44.500;11.188;2023-05-07T15:24:28;26.80;99.90
32865;DHT22;19219;44.500;11.188;2023-05-07T15:26:54;26.60;99.90